メインページ
METAR-TAF:

METAR-TAF

空港 :

但馬飛行場

但馬空港, 日本

緯度: 35-31N, 経度: 134-48E, 海抜: 210m

現時点の気象観測

当レポートは32分前の09:07(UTC)に作成
東/北東の風 4kt、北東からの間で変化する
気温 14°C
湿度 94%
気圧 1007 hPa
視程: 0800m
高度100ft以下の雲はほとんどない
高度200ftの雲は散在している
高度600ftの千切れ雲あり
弱いにわか雨, 霧

METAR: RJBT 240907Z 06004KT 040V100 0800 -SHRA FG FEW000 SCT002 BKN006 14/13 Q1007 RMK 1ST000 3ST002 5ST006 A2974

時間: 18:39 (09:39 UTC)


TAF: 見つかりません

4,000以上の空港の気象観測と天気予報(METAR報とTAF報)

利用可能な観測所は地図上に黄色い丸と赤い丸で示す。

丸の上にカーソルを重ねると観測所名を参照できる。

次にクリックすると気象観測と天気予報を参照できる。

マップの切り替え:黒色「×」印の緑ボタンをクリックして拡大、「-」印の緑ボタンをクリックして縮小、緑色の三角印をクリックして隣りの地図に切り替え


METAR-TAF: